PWSweather.com
Personal Weather Stations
Station Observations
EA5BZ
Nuevo Altabix, ElcheES

Nuevo AltabixElcheES

Lat: 38.276, Lon: -0.671

Elevation: 0

Station Type: Davis Vantage Pro 2

http://meteoelche.es

High Low Average
Temperature 66.8°F19.3°C 52.0°F11.1°C 56.9°F13.8°C
Dew Point 51.1°F10.6°C 39.8°F4.3°C 45.5°F7.5°C
Winds 13.0 mph 20.9 kmh 1.8 mph 2.9 kmh 7.0 mph SW11.3 kmh SW
Wind Gusts 18.6 mph29.9 kmh 2.9 mph4.7 kmh 10.0 mph16.1 kmh
Humidity 85% 46% 67%
Pressure 30.39 in1029.1 mb 30.28 in1025.4 mb -
Precipitation 0.00 in0.0 mm - -
Hour Temp Dew Point Humidity Winds Wind Gusts Pressure Precip Precip Rate Daily Precip Total
12:00 AM 52.2°F11.2°C 45.8°F7.7°C 79% 8.7 mph WSW14.0 kmh WSW 11.2 mph18.0 kmh 30.39 in1029.1 mb 0.00 in0.0 mm 0.00 in0.0 mm 0.00 in0.0 mm
12:05 AM 52.3°F11.3°C 45.7°F7.6°C 78% 8.7 mph WSW14.0 kmh WSW 12.3 mph19.8 kmh 30.39 in1029.1 mb 0.00 in0.0 mm 0.00 in0.0 mm 0.00 in0.0 mm
12:10 AM 52.4°F11.3°C 45.7°F7.6°C 78% 8.7 mph WSW14.0 kmh WSW 13.4 mph21.6 kmh 30.39 in1029.1 mb 0.00 in0.0 mm 0.00 in0.0 mm 0.00 in0.0 mm
12:15 AM 52.5°F11.4°C 45.9°F7.7°C 78% 8.8 mph WSW14.2 kmh WSW 12.5 mph20.1 kmh 30.39 in1029.1 mb 0.00 in0.0 mm 0.00 in0.0 mm 0.00 in0.0 mm
12:20 AM 52.7°F11.5°C 45.7°F7.6°C 77% 9.2 mph WSW14.8 kmh WSW 12.5 mph20.1 kmh 30.39 in1029.1 mb 0.00 in0.0 mm 0.00 in0.0 mm 0.00 in0.0 mm
12:25 AM 52.8°F11.6°C 45.8°F7.7°C 77% 9.4 mph WSW15.1 kmh WSW 11.9 mph19.2 kmh 30.38 in1028.8 mb 0.00 in0.0 mm 0.00 in0.0 mm 0.00 in0.0 mm
12:30 AM 52.9°F11.6°C 45.7°F7.6°C 77% 10.1 mph WSW16.3 kmh WSW 14.1 mph22.7 kmh 30.38 in1028.8 mb 0.00 in0.0 mm 0.00 in0.0 mm 0.00 in0.0 mm
12:35 AM 52.7°F11.5°C 45.5°F7.5°C 76% 10.2 mph WSW16.4 kmh WSW 14.1 mph22.7 kmh 30.38 in1028.8 mb 0.00 in0.0 mm 0.00 in0.0 mm 0.00 in0.0 mm
12:40 AM 52.7°F11.5°C 45.7°F7.6°C 77% 10.7 mph WSW17.2 kmh WSW 13.0 mph20.9 kmh 30.39 in1029.1 mb 0.00 in0.0 mm 0.00 in0.0 mm 0.00 in0.0 mm
12:45 AM 52.7°F11.5°C 45.7°F7.6°C 77% 10.5 mph WSW16.9 kmh WSW 11.2 mph18.0 kmh 30.39 in1029.1 mb 0.00 in0.0 mm 0.00 in0.0 mm 0.00 in0.0 mm
12:50 AM 52.7°F11.5°C 45.7°F7.6°C 77% 9.6 mph WSW15.4 kmh WSW 12.5 mph20.1 kmh 30.39 in1029.1 mb 0.00 in0.0 mm 0.00 in0.0 mm 0.00 in0.0 mm
12:55 AM 52.9°F11.6°C 45.9°F7.7°C 77% 9.5 mph WSW15.3 kmh WSW 14.1 mph22.7 kmh 30.39 in1029.1 mb 0.00 in0.0 mm 0.00 in0.0 mm 0.00 in0.0 mm
01:00 AM 53.2°F11.8°C 45.8°F7.7°C 76% 9.2 mph WSW14.8 kmh WSW 11.9 mph19.2 kmh 30.39 in1029.1 mb 0.00 in0.0 mm 0.00 in0.0 mm 0.00 in0.0 mm
01:05 AM 53.4°F11.9°C 45.7°F7.6°C 75% 9.1 mph WSW14.6 kmh WSW 12.3 mph19.8 kmh 30.39 in1029.1 mb 0.00 in0.0 mm 0.00 in0.0 mm 0.00 in0.0 mm
01:10 AM 53.4°F11.9°C 45.7°F7.6°C 75% 8.7 mph WSW14.0 kmh WSW 12.3 mph19.8 kmh 30.38 in1028.8 mb 0.00 in0.0 mm 0.00 in0.0 mm 0.00 in0.0 mm
01:15 AM 53.4°F11.9°C 45.6°F7.6°C 75% 8.9 mph WSW14.3 kmh WSW 13.6 mph21.9 kmh 30.38 in1028.8 mb 0.00 in0.0 mm 0.00 in0.0 mm 0.00 in0.0 mm
01:20 AM 53.4°F11.9°C 45.3°F7.4°C 74% 9.6 mph WSW15.4 kmh WSW 15.2 mph24.5 kmh 30.38 in1028.8 mb 0.00 in0.0 mm 0.00 in0.0 mm 0.00 in0.0 mm
01:25 AM 53.2°F11.8°C 45.2°F7.3°C 74% 10.3 mph WSW16.6 kmh WSW 14.8 mph23.8 kmh 30.38 in1028.8 mb 0.00 in0.0 mm 0.00 in0.0 mm 0.00 in0.0 mm
01:30 AM 53.2°F11.8°C 45.2°F7.3°C 74% 12.3 mph W19.8 kmh W 12.3 mph19.8 kmh 30.38 in1028.8 mb 0.00 in0.0 mm 0.00 in0.0 mm 0.00 in0.0 mm
01:35 AM 53.2°F11.8°C 45.2°F7.3°C 74% 11.6 mph WSW18.7 kmh WSW 13.4 mph21.6 kmh 30.38 in1028.8 mb 0.00 in0.0 mm 0.00 in0.0 mm 0.00 in0.0 mm
01:40 AM 53.2°F11.8°C 45.2°F7.3°C 74% 9.6 mph WSW15.4 kmh WSW 14.8 mph23.8 kmh 30.37 in1028.4 mb 0.00 in0.0 mm 0.00 in0.0 mm 0.00 in0.0 mm
01:45 AM 53.2°F11.8°C 45.2°F7.3°C 74% 10.1 mph WSW16.3 kmh WSW 14.1 mph22.7 kmh 30.37 in1028.4 mb 0.00 in0.0 mm 0.00 in0.0 mm 0.00 in0.0 mm
01:50 AM 53.1°F11.7°C 45.0°F7.2°C 74% 11.4 mph WSW18.3 kmh WSW 15.2 mph24.5 kmh 30.37 in1028.4 mb 0.00 in0.0 mm 0.00 in0.0 mm 0.00 in0.0 mm
01:55 AM 53.1°F11.7°C 45.0°F7.2°C 74% 11.1 mph WSW17.9 kmh WSW 12.5 mph20.1 kmh 30.37 in1028.4 mb 0.00 in0.0 mm 0.00 in0.0 mm 0.00 in0.0 mm
02:00 AM 53.1°F11.7°C 45.0°F7.2°C 74% 10.3 mph WSW16.6 kmh WSW 13.0 mph20.9 kmh 30.37 in1028.4 mb 0.00 in0.0 mm 0.00 in0.0 mm 0.00 in0.0 mm
02:05 AM 53.0°F11.7°C 44.9°F7.2°C 74% 10.2 mph WSW16.4 kmh WSW 12.5 mph20.1 kmh 30.37 in1028.4 mb 0.00 in0.0 mm 0.00 in0.0 mm 0.00 in0.0 mm
02:10 AM 52.9°F11.6°C 44.8°F7.1°C 74% 10.1 mph WSW16.3 kmh WSW 14.1 mph22.7 kmh 30.36 in1028.1 mb 0.00 in0.0 mm 0.00 in0.0 mm 0.00 in0.0 mm
02:15 AM 52.9°F11.6°C 44.8°F7.1°C 74% 10.1 mph WSW16.3 kmh WSW 13.6 mph21.9 kmh 30.36 in1028.1 mb 0.00 in0.0 mm 0.00 in0.0 mm 0.00 in0.0 mm
02:20 AM 52.9°F11.6°C 44.8°F7.1°C 74% 10.3 mph WSW16.6 kmh WSW 13.4 mph21.6 kmh 30.36 in1028.1 mb 0.00 in0.0 mm 0.00 in0.0 mm 0.00 in0.0 mm
02:25 AM 52.9°F11.6°C 44.8°F7.1°C 74% 10.3 mph WSW16.6 kmh WSW 12.3 mph19.8 kmh 30.36 in1028.1 mb 0.00 in0.0 mm 0.00 in0.0 mm 0.00 in0.0 mm
02:30 AM 52.8°F11.6°C 44.7°F7.1°C 74% 10.3 mph WSW16.6 kmh WSW 12.3 mph19.8 kmh 30.37 in1028.4 mb 0.00 in0.0 mm 0.00 in0.0 mm 0.00 in0.0 mm
02:35 AM 52.7°F11.5°C 44.6°F7.0°C 74% 10.0 mph WSW16.1 kmh WSW 12.3 mph19.8 kmh 30.37 in1028.4 mb 0.00 in0.0 mm 0.00 in0.0 mm 0.00 in0.0 mm
02:40 AM 52.7°F11.5°C 44.6°F7.0°C 74% 9.2 mph WSW14.8 kmh WSW 13.0 mph20.9 kmh 30.37 in1028.4 mb 0.00 in0.0 mm 0.00 in0.0 mm 0.00 in0.0 mm
02:45 AM 52.7°F11.5°C 44.6°F7.0°C 74% 9.0 mph WSW14.5 kmh WSW 10.3 mph16.6 kmh 30.37 in1028.4 mb 0.00 in0.0 mm 0.00 in0.0 mm 0.00 in0.0 mm
02:50 AM 52.6°F11.4°C 44.5°F6.9°C 74% 8.5 mph WSW13.7 kmh WSW 14.1 mph22.7 kmh 30.37 in1028.4 mb 0.00 in0.0 mm 0.00 in0.0 mm 0.00 in0.0 mm
02:55 AM 52.5°F11.4°C 44.5°F6.9°C 74% 8.9 mph WSW14.3 kmh WSW 14.8 mph23.8 kmh 30.37 in1028.4 mb 0.00 in0.0 mm 0.00 in0.0 mm 0.00 in0.0 mm
03:00 AM 52.7°F11.5°C 44.6°F7.0°C 74% 10.1 mph WSW16.3 kmh WSW 16.3 mph26.2 kmh 30.37 in1028.4 mb 0.00 in0.0 mm 0.00 in0.0 mm 0.00 in0.0 mm
03:05 AM 52.9°F11.6°C 44.6°F7.0°C 73% 10.3 mph WSW16.6 kmh WSW 13.4 mph21.6 kmh 30.37 in1028.4 mb 0.00 in0.0 mm 0.00 in0.0 mm 0.00 in0.0 mm
03:10 AM 52.9°F11.6°C 44.5°F6.9°C 73% 11.2 mph WSW18.0 kmh WSW 12.5 mph20.1 kmh 30.37 in1028.4 mb 0.00 in0.0 mm 0.00 in0.0 mm 0.00 in0.0 mm
03:15 AM 52.9°F11.6°C 44.5°F6.9°C 73% 10.7 mph WSW17.2 kmh WSW 12.5 mph20.1 kmh 30.37 in1028.4 mb 0.00 in0.0 mm 0.00 in0.0 mm 0.00 in0.0 mm
03:20 AM 52.9°F11.6°C 44.5°F6.9°C 73% 9.2 mph WSW14.8 kmh WSW 12.5 mph20.1 kmh 30.37 in1028.4 mb 0.00 in0.0 mm 0.00 in0.0 mm 0.00 in0.0 mm
03:25 AM 52.9°F11.6°C 44.5°F6.9°C 73% 9.2 mph WSW14.8 kmh WSW 12.5 mph20.1 kmh 30.36 in1028.1 mb 0.00 in0.0 mm 0.00 in0.0 mm 0.00 in0.0 mm
03:30 AM 52.7°F11.5°C 44.3°F6.8°C 73% 9.2 mph WSW14.8 kmh WSW 14.1 mph22.7 kmh 30.36 in1028.1 mb 0.00 in0.0 mm 0.00 in0.0 mm 0.00 in0.0 mm
03:35 AM 52.6°F11.4°C 44.2°F6.8°C 73% 9.4 mph WSW15.1 kmh WSW 13.6 mph21.9 kmh 30.36 in1028.1 mb 0.00 in0.0 mm 0.00 in0.0 mm 0.00 in0.0 mm
03:40 AM 52.5°F11.4°C 44.1°F6.7°C 73% 10.3 mph WSW16.6 kmh WSW 14.5 mph23.3 kmh 30.36 in1028.1 mb 0.00 in0.0 mm 0.00 in0.0 mm 0.00 in0.0 mm
03:45 AM 52.7°F11.5°C 44.3°F6.8°C 73% 10.4 mph WSW16.7 kmh WSW 15.9 mph25.6 kmh 30.36 in1028.1 mb 0.00 in0.0 mm 0.00 in0.0 mm 0.00 in0.0 mm
03:50 AM 52.9°F11.6°C 44.2°F6.8°C 72% 10.7 mph WSW17.2 kmh WSW 13.6 mph21.9 kmh 30.36 in1028.1 mb 0.00 in0.0 mm 0.00 in0.0 mm 0.00 in0.0 mm
03:55 AM 53.1°F11.7°C 44.3°F6.8°C 72% 10.6 mph WSW17.1 kmh WSW 12.3 mph19.8 kmh 30.36 in1028.1 mb 0.00 in0.0 mm 0.00 in0.0 mm 0.00 in0.0 mm
04:00 AM 53.2°F11.8°C 44.0°F6.7°C 71% 10.1 mph WSW16.3 kmh WSW 12.5 mph20.1 kmh 30.35 in1027.8 mb 0.00 in0.0 mm 0.00 in0.0 mm 0.00 in0.0 mm
04:05 AM 53.2°F11.8°C 43.9°F6.6°C 71% 10.0 mph WSW16.1 kmh WSW 12.5 mph20.1 kmh 30.35 in1027.8 mb 0.00 in0.0 mm 0.00 in0.0 mm 0.00 in0.0 mm
04:10 AM 53.2°F11.8°C 43.7°F6.5°C 70% 9.6 mph WSW15.4 kmh WSW 12.3 mph19.8 kmh 30.35 in1027.8 mb 0.00 in0.0 mm 0.00 in0.0 mm 0.00 in0.0 mm
04:15 AM 53.2°F11.8°C 43.6°F6.4°C 70% 9.5 mph WSW15.3 kmh WSW 13.4 mph21.6 kmh 30.35 in1027.8 mb 0.00 in0.0 mm 0.00 in0.0 mm 0.00 in0.0 mm
04:20 AM 53.2°F11.8°C 43.3°F6.3°C 69% 9.2 mph W14.8 kmh W 14.1 mph22.7 kmh 30.35 in1027.8 mb 0.00 in0.0 mm 0.00 in0.0 mm 0.00 in0.0 mm
04:25 AM 53.1°F11.7°C 43.2°F6.2°C 69% 9.4 mph WSW15.1 kmh WSW 14.1 mph22.7 kmh 30.35 in1027.8 mb 0.00 in0.0 mm 0.00 in0.0 mm 0.00 in0.0 mm
04:30 AM 52.9°F11.6°C 43.3°F6.3°C 70% 10.3 mph WSW16.6 kmh WSW 14.1 mph22.7 kmh 30.35 in1027.8 mb 0.00 in0.0 mm 0.00 in0.0 mm 0.00 in0.0 mm
04:35 AM 53.0°F11.7°C 43.5°F6.4°C 70% 10.0 mph WSW16.1 kmh WSW 12.3 mph19.8 kmh 30.35 in1027.8 mb 0.00 in0.0 mm 0.00 in0.0 mm 0.00 in0.0 mm
04:40 AM 53.1°F11.7°C 43.5°F6.4°C 70% 9.2 mph WSW14.8 kmh WSW 11.2 mph18.0 kmh 30.35 in1027.8 mb 0.00 in0.0 mm 0.00 in0.0 mm 0.00 in0.0 mm
04:45 AM 53.1°F11.7°C 43.4°F6.3°C 70% 8.8 mph WSW14.2 kmh WSW 10.3 mph16.6 kmh 30.35 in1027.8 mb 0.00 in0.0 mm 0.00 in0.0 mm 0.00 in0.0 mm
04:50 AM 53.1°F11.7°C 43.2°F6.2°C 69% 7.6 mph WSW12.2 kmh WSW 13.0 mph20.9 kmh 30.35 in1027.8 mb 0.00 in0.0 mm 0.00 in0.0 mm 0.00 in0.0 mm
04:55 AM 53.1°F11.7°C 43.2°F6.2°C 69% 7.7 mph WSW12.4 kmh WSW 13.0 mph20.9 kmh 30.34 in1027.4 mb 0.00 in0.0 mm 0.00 in0.0 mm 0.00 in0.0 mm
05:00 AM 53.1°F11.7°C 43.2°F6.2°C 69% 8.1 mph WSW13.0 kmh WSW 12.3 mph19.8 kmh 30.34 in1027.4 mb 0.00 in0.0 mm 0.00 in0.0 mm 0.00 in0.0 mm
05:05 AM 53.2°F11.8°C 43.3°F6.3°C 69% 8.2 mph WSW13.2 kmh WSW 13.0 mph20.9 kmh 30.34 in1027.4 mb 0.00 in0.0 mm 0.00 in0.0 mm 0.00 in0.0 mm
05:10 AM 53.1°F11.7°C 43.2°F6.2°C 69% 8.5 mph WSW13.7 kmh WSW 14.8 mph23.8 kmh 30.34 in1027.4 mb 0.00 in0.0 mm 0.00 in0.0 mm 0.00 in0.0 mm
05:15 AM 53.0°F11.7°C 43.1°F6.2°C 69% 9.1 mph WSW14.6 kmh WSW 15.9 mph25.6 kmh 30.34 in1027.4 mb 0.00 in0.0 mm 0.00 in0.0 mm 0.00 in0.0 mm
05:20 AM 52.7°F11.5°C 42.8°F6.0°C 69% 10.7 mph WSW17.2 kmh WSW 17.9 mph28.8 kmh 30.34 in1027.4 mb 0.00 in0.0 mm 0.00 in0.0 mm 0.00 in0.0 mm
05:25 AM 52.4°F11.3°C 42.8°F6.0°C 70% 11.3 mph WSW18.2 kmh WSW 18.6 mph29.9 kmh 30.34 in1027.4 mb 0.00 in0.0 mm 0.00 in0.0 mm 0.00 in0.0 mm
05:30 AM 52.3°F11.3°C 42.7°F5.9°C 70% 13.0 mph WSW20.9 kmh WSW 16.3 mph26.2 kmh 30.34 in1027.4 mb 0.00 in0.0 mm 0.00 in0.0 mm 0.00 in0.0 mm
05:35 AM 52.3°F11.3°C 42.5°F5.8°C 69% 12.8 mph WSW20.6 kmh WSW 17.4 mph28.0 kmh 30.34 in1027.4 mb 0.00 in0.0 mm 0.00 in0.0 mm 0.00 in0.0 mm
05:40 AM 52.3°F11.3°C 42.5°F5.8°C 69% 12.3 mph WSW19.8 kmh WSW 17.9 mph28.8 kmh 30.34 in1027.4 mb 0.00 in0.0 mm 0.00 in0.0 mm 0.00 in0.0 mm
05:45 AM 52.3°F11.3°C 42.5°F5.8°C 69% 12.2 mph WSW19.6 kmh WSW 16.3 mph26.2 kmh 30.34 in1027.4 mb 0.00 in0.0 mm 0.00 in0.0 mm 0.00 in0.0 mm
05:50 AM 52.4°F11.3°C 42.4°F5.8°C 69% 11.9 mph WSW19.2 kmh WSW 13.4 mph21.6 kmh 30.34 in1027.4 mb 0.00 in0.0 mm 0.00 in0.0 mm 0.00 in0.0 mm
05:55 AM 52.5°F11.4°C 42.2°F5.7°C 68% 11.6 mph WSW18.7 kmh WSW 13.4 mph21.6 kmh 30.33 in1027.1 mb 0.00 in0.0 mm 0.00 in0.0 mm 0.00 in0.0 mm
06:00 AM 52.3°F11.3°C 42.1°F5.6°C 68% 10.7 mph WSW17.2 kmh WSW 14.1 mph22.7 kmh 30.33 in1027.1 mb 0.00 in0.0 mm 0.00 in0.0 mm 0.00 in0.0 mm
06:05 AM 52.3°F11.3°C 42.1°F5.6°C 68% 10.6 mph WSW17.1 kmh WSW 12.3 mph19.8 kmh 30.33 in1027.1 mb 0.00 in0.0 mm 0.00 in0.0 mm 0.00 in0.0 mm
06:10 AM 52.2°F11.2°C 41.9°F5.5°C 68% 10.1 mph WSW16.3 kmh WSW 11.9 mph19.2 kmh 30.34 in1027.4 mb 0.00 in0.0 mm 0.00 in0.0 mm 0.00 in0.0 mm
06:15 AM 52.0°F11.1°C 42.0°F5.6°C 69% 9.8 mph WSW15.8 kmh WSW 14.5 mph23.3 kmh 30.34 in1027.4 mb 0.00 in0.0 mm 0.00 in0.0 mm 0.00 in0.0 mm
06:20 AM 52.1°F11.2°C 42.0°F5.6°C 68% 9.2 mph WSW14.8 kmh WSW 16.8 mph27.0 kmh 30.34 in1027.4 mb 0.00 in0.0 mm 0.00 in0.0 mm 0.00 in0.0 mm
06:25 AM 52.4°F11.3°C 42.0°F5.6°C 68% 10.0 mph WSW16.1 kmh WSW 16.8 mph27.0 kmh 30.33 in1027.1 mb 0.00 in0.0 mm 0.00 in0.0 mm 0.00 in0.0 mm
06:30 AM 52.5°F11.4°C 41.9°F5.5°C 67% 12.5 mph WSW20.1 kmh WSW 15.7 mph25.3 kmh 30.33 in1027.1 mb 0.00 in0.0 mm 0.00 in0.0 mm 0.00 in0.0 mm
06:35 AM 52.4°F11.3°C 41.8°F5.4°C 67% 12.5 mph WSW20.1 kmh WSW 16.3 mph26.2 kmh 30.33 in1027.1 mb 0.00 in0.0 mm 0.00 in0.0 mm 0.00 in0.0 mm
06:40 AM 52.3°F11.3°C 41.7°F5.4°C 67% 12.3 mph WSW19.8 kmh WSW 16.3 mph26.2 kmh 30.33 in1027.1 mb 0.00 in0.0 mm 0.00 in0.0 mm 0.00 in0.0 mm
06:45 AM 52.3°F11.3°C 41.7°F5.4°C 67% 12.3 mph WSW19.8 kmh WSW 15.9 mph25.6 kmh 30.33 in1027.1 mb 0.00 in0.0 mm 0.00 in0.0 mm 0.00 in0.0 mm
06:50 AM 52.5°F11.4°C 41.6°F5.3°C 66% 12.3 mph WSW19.8 kmh WSW 14.1 mph22.7 kmh 30.33 in1027.1 mb 0.00 in0.0 mm 0.00 in0.0 mm 0.00 in0.0 mm
06:55 AM 52.6°F11.4°C 41.6°F5.3°C 66% 11.6 mph WSW18.7 kmh WSW 13.6 mph21.9 kmh 30.33 in1027.1 mb 0.00 in0.0 mm 0.00 in0.0 mm 0.00 in0.0 mm
07:00 AM 52.7°F11.5°C 41.5°F5.3°C 66% 9.6 mph WSW15.4 kmh WSW 13.6 mph21.9 kmh 30.33 in1027.1 mb 0.00 in0.0 mm 0.00 in0.0 mm 0.00 in0.0 mm
07:05 AM 52.7°F11.5°C 41.3°F5.2°C 65% 9.6 mph WSW15.4 kmh WSW 12.3 mph19.8 kmh 30.33 in1027.1 mb 0.00 in0.0 mm 0.00 in0.0 mm 0.00 in0.0 mm
07:10 AM 52.8°F11.6°C 41.3°F5.2°C 65% 9.6 mph WSW15.4 kmh WSW 14.5 mph23.3 kmh 30.33 in1027.1 mb 0.00 in0.0 mm 0.00 in0.0 mm 0.00 in0.0 mm
07:15 AM 52.9°F11.6°C 41.4°F5.2°C 65% 9.4 mph WSW15.1 kmh WSW 12.5 mph20.1 kmh 30.33 in1027.1 mb 0.00 in0.0 mm 0.00 in0.0 mm 0.00 in0.0 mm
07:20 AM 52.8°F11.6°C 41.3°F5.2°C 65% 8.7 mph WSW14.0 kmh WSW 13.4 mph21.6 kmh 30.33 in1027.1 mb 0.00 in0.0 mm 0.00 in0.0 mm 0.00 in0.0 mm
07:25 AM 52.9°F11.6°C 41.0°F5.0°C 64% 9.1 mph WSW14.6 kmh WSW 14.5 mph23.3 kmh 30.33 in1027.1 mb 0.00 in0.0 mm 0.00 in0.0 mm 0.00 in0.0 mm
07:30 AM 52.9°F11.6°C 41.0°F5.0°C 64% 10.3 mph WSW16.6 kmh WSW 13.0 mph20.9 kmh 30.33 in1027.1 mb 0.00 in0.0 mm 0.00 in0.0 mm 0.00 in0.0 mm
07:35 AM 53.0°F11.7°C 41.1°F5.1°C 64% 9.8 mph WSW15.8 kmh WSW 11.2 mph18.0 kmh 30.33 in1027.1 mb 0.00 in0.0 mm 0.00 in0.0 mm 0.00 in0.0 mm
07:40 AM 53.1°F11.7°C 40.9°F4.9°C 63% 8.5 mph WSW13.7 kmh WSW 11.4 mph18.3 kmh 30.34 in1027.4 mb 0.00 in0.0 mm 0.00 in0.0 mm 0.00 in0.0 mm
07:45 AM 53.2°F11.8°C 41.0°F5.0°C 63% 8.5 mph WSW13.7 kmh WSW 10.7 mph17.2 kmh 30.34 in1027.4 mb 0.00 in0.0 mm 0.00 in0.0 mm 0.00 in0.0 mm
07:50 AM 53.2°F11.8°C 40.6°F4.8°C 62% 8.5 mph WSW13.7 kmh WSW 12.5 mph20.1 kmh 30.34 in1027.4 mb 0.00 in0.0 mm 0.00 in0.0 mm 0.00 in0.0 mm
07:55 AM 53.2°F11.8°C 40.6°F4.8°C 62% 8.7 mph WSW14.0 kmh WSW 13.0 mph20.9 kmh 30.34 in1027.4 mb 0.00 in0.0 mm 0.00 in0.0 mm 0.00 in0.0 mm
08:00 AM 53.2°F11.8°C 40.6°F4.8°C 62% 9.2 mph WSW14.8 kmh WSW 13.6 mph21.9 kmh 30.34 in1027.4 mb 0.00 in0.0 mm 0.00 in0.0 mm 0.00 in0.0 mm
08:05 AM 53.2°F11.8°C 40.2°F4.6°C 61% 9.1 mph WSW14.6 kmh WSW 12.3 mph19.8 kmh 30.34 in1027.4 mb 0.00 in0.0 mm 0.00 in0.0 mm 0.00 in0.0 mm
08:10 AM 53.2°F11.8°C 40.1°F4.5°C 61% 8.7 mph WSW14.0 kmh WSW 14.1 mph22.7 kmh 30.33 in1027.1 mb 0.00 in0.0 mm 0.00 in0.0 mm 0.00 in0.0 mm
08:15 AM 53.3°F11.8°C 39.8°F4.3°C 60% 8.9 mph WSW14.3 kmh WSW 13.6 mph21.9 kmh 30.33 in1027.1 mb 0.00 in0.0 mm 0.00 in0.0 mm 0.00 in0.0 mm
08:20 AM 53.4°F11.9°C 39.9°F4.4°C 60% 9.6 mph SW15.4 kmh SW 11.4 mph18.3 kmh 30.33 in1027.1 mb 0.00 in0.0 mm 0.00 in0.0 mm 0.00 in0.0 mm
08:25 AM 53.4°F11.9°C 39.9°F4.4°C 60% 9.0 mph SW14.5 kmh SW 9.6 mph15.4 kmh 30.33 in1027.1 mb 0.00 in0.0 mm 0.00 in0.0 mm 0.00 in0.0 mm
08:30 AM 53.4°F11.9°C 39.9°F4.4°C 60% 6.9 mph SW11.1 kmh SW 10.1 mph16.3 kmh 30.33 in1027.1 mb 0.00 in0.0 mm 0.00 in0.0 mm 0.00 in0.0 mm
08:35 AM 53.4°F11.9°C 39.9°F4.4°C 60% 7.2 mph SW11.6 kmh SW 13.6 mph21.9 kmh 30.33 in1027.1 mb 0.00 in0.0 mm 0.00 in0.0 mm 0.00 in0.0 mm
08:40 AM 53.4°F11.9°C 39.9°F4.4°C 60% 8.1 mph SW13.0 kmh SW 14.1 mph22.7 kmh 30.33 in1027.1 mb 0.00 in0.0 mm 0.00 in0.0 mm 0.00 in0.0 mm
08:45 AM 53.4°F11.9°C 39.9°F4.4°C 60% 8.3 mph SW13.4 kmh SW 12.5 mph20.1 kmh 30.33 in1027.1 mb 0.00 in0.0 mm 0.00 in0.0 mm 0.00 in0.0 mm
08:50 AM 53.4°F11.9°C 39.9°F4.4°C 60% 9.2 mph SW14.8 kmh SW 11.2 mph18.0 kmh 30.33 in1027.1 mb 0.00 in0.0 mm 0.00 in0.0 mm 0.00 in0.0 mm
08:55 AM 53.3°F11.8°C 39.9°F4.4°C 60% 8.8 mph SW14.2 kmh SW 10.3 mph16.6 kmh 30.33 in1027.1 mb 0.00 in0.0 mm 0.00 in0.0 mm 0.00 in0.0 mm
09:00 AM 53.2°F11.8°C 40.1°F4.5°C 61% 7.6 mph SW12.2 kmh SW 10.1 mph16.3 kmh 30.33 in1027.1 mb 0.00 in0.0 mm 0.00 in0.0 mm 0.00 in0.0 mm
09:05 AM 53.2°F11.8°C 40.1°F4.5°C 61% 7.6 mph SW12.2 kmh SW 10.1 mph16.3 kmh 30.33 in1027.1 mb 0.00 in0.0 mm 0.00 in0.0 mm 0.00 in0.0 mm
09:10 AM 53.1°F11.7°C 40.2°F4.6°C 62% 7.6 mph SW12.2 kmh SW 8.7 mph14.0 kmh 30.34 in1027.4 mb 0.00 in0.0 mm 0.00 in0.0 mm 0.00 in0.0 mm
09:15 AM 53.0°F11.7°C 40.3°F4.6°C 62% 7.2 mph SW11.6 kmh SW 7.6 mph12.2 kmh 30.34 in1027.4 mb 0.00 in0.0 mm 0.00 in0.0 mm 0.00 in0.0 mm
09:20 AM 53.1°F11.7°C 40.3°F4.6°C 62% 5.8 mph SW9.3 kmh SW 7.4 mph11.9 kmh 30.34 in1027.4 mb 0.00 in0.0 mm 0.00 in0.0 mm 0.00 in0.0 mm
09:25 AM 53.2°F11.8°C 40.1°F4.5°C 61% 5.4 mph SW8.7 kmh SW 6.5 mph10.5 kmh 30.34 in1027.4 mb 0.00 in0.0 mm 0.00 in0.0 mm 0.00 in0.0 mm
09:30 AM 53.4°F11.9°C 40.2°F4.6°C 61% 4.0 mph WSW6.4 kmh WSW 5.8 mph9.3 kmh 30.34 in1027.4 mb 0.00 in0.0 mm 0.00 in0.0 mm 0.00 in0.0 mm
09:35 AM 53.6°F12.0°C 40.3°F4.6°C 61% 4.0 mph WSW6.4 kmh WSW 9.6 mph15.4 kmh 30.34 in1027.4 mb 0.00 in0.0 mm 0.00 in0.0 mm 0.00 in0.0 mm
09:40 AM 54.1°F12.3°C 40.4°F4.7°C 60% 4.0 mph WSW6.4 kmh WSW 10.3 mph16.6 kmh 30.35 in1027.8 mb 0.00 in0.0 mm 0.00 in0.0 mm 0.00 in0.0 mm
09:45 AM 54.9°F12.7°C 40.4°F4.7°C 58% 4.8 mph WSW7.7 kmh WSW 12.3 mph19.8 kmh 30.35 in1027.8 mb 0.00 in0.0 mm 0.00 in0.0 mm 0.00 in0.0 mm
09:50 AM 55.7°F13.2°C 40.2°F4.6°C 56% 7.4 mph WSW11.9 kmh WSW 12.5 mph20.1 kmh 30.35 in1027.8 mb 0.00 in0.0 mm 0.00 in0.0 mm 0.00 in0.0 mm
09:55 AM 56.3°F13.5°C 40.4°F4.7°C 55% 7.4 mph WSW11.9 kmh WSW 8.5 mph13.7 kmh 30.35 in1027.8 mb 0.00 in0.0 mm 0.00 in0.0 mm 0.00 in0.0 mm
10:00 AM 56.6°F13.7°C 40.6°F4.8°C 55% 7.4 mph WSW11.9 kmh WSW 7.4 mph11.9 kmh 30.35 in1027.8 mb 0.00 in0.0 mm 0.00 in0.0 mm 0.00 in0.0 mm
10:05 AM 56.9°F13.8°C 40.9°F4.9°C 55% 6.9 mph WSW11.1 kmh WSW 8.5 mph13.7 kmh 30.35 in1027.8 mb 0.00 in0.0 mm 0.00 in0.0 mm 0.00 in0.0 mm
10:10 AM 57.2°F14.0°C 41.1°F5.1°C 55% 5.4 mph SW8.7 kmh SW 10.3 mph16.6 kmh 30.35 in1027.8 mb 0.00 in0.0 mm 0.00 in0.0 mm 0.00 in0.0 mm
10:15 AM 57.6°F14.2°C 41.1°F5.1°C 54% 5.6 mph SW9.0 kmh SW 8.7 mph14.0 kmh 30.35 in1027.8 mb 0.00 in0.0 mm 0.00 in0.0 mm 0.00 in0.0 mm
10:20 AM 58.1°F14.5°C 41.4°F5.2°C 54% 6.5 mph SW10.5 kmh SW 8.5 mph13.7 kmh 30.35 in1027.8 mb 0.00 in0.0 mm 0.00 in0.0 mm 0.00 in0.0 mm
10:25 AM 58.4°F14.7°C 41.3°F5.2°C 53% 6.2 mph SW10.0 kmh SW 7.6 mph12.2 kmh 30.35 in1027.8 mb 0.00 in0.0 mm 0.00 in0.0 mm 0.00 in0.0 mm
10:30 AM 58.7°F14.8°C 41.3°F5.2°C 52% 5.4 mph WSW8.7 kmh WSW 7.6 mph12.2 kmh 30.35 in1027.8 mb 0.00 in0.0 mm 0.00 in0.0 mm 0.00 in0.0 mm
10:35 AM 59.2°F15.1°C 41.5°F5.3°C 52% 5.3 mph WSW8.5 kmh WSW 7.6 mph12.2 kmh 30.35 in1027.8 mb 0.00 in0.0 mm 0.00 in0.0 mm 0.00 in0.0 mm
10:40 AM 59.6°F15.3°C 41.7°F5.4°C 51% 5.1 mph WSW8.2 kmh WSW 5.8 mph9.3 kmh 30.36 in1028.1 mb 0.00 in0.0 mm 0.00 in0.0 mm 0.00 in0.0 mm
10:45 AM 60.0°F15.6°C 42.5°F5.8°C 52% 4.6 mph WSW7.4 kmh WSW 5.1 mph8.2 kmh 30.36 in1028.1 mb 0.00 in0.0 mm 0.00 in0.0 mm 0.00 in0.0 mm
10:50 AM 59.9°F15.5°C 43.5°F6.4°C 55% 2.9 mph NNW4.7 kmh NNW 3.6 mph5.8 kmh 30.36 in1028.1 mb 0.00 in0.0 mm 0.00 in0.0 mm 0.00 in0.0 mm
10:55 AM 59.7°F15.4°C 43.2°F6.2°C 54% 2.6 mph NNW4.2 kmh NNW 2.9 mph4.7 kmh 30.36 in1028.1 mb 0.00 in0.0 mm 0.00 in0.0 mm 0.00 in0.0 mm
11:00 AM 60.0°F15.6°C 44.4°F6.9°C 56% 1.8 mph NE2.9 kmh NE 4.3 mph6.9 kmh 30.36 in1028.1 mb 0.00 in0.0 mm 0.00 in0.0 mm 0.00 in0.0 mm
11:05 AM 59.8°F15.4°C 44.7°F7.1°C 57% 2.0 mph NE3.2 kmh NE 5.1 mph8.2 kmh 30.36 in1028.1 mb 0.00 in0.0 mm 0.00 in0.0 mm 0.00 in0.0 mm
11:10 AM 59.7°F15.4°C 44.6°F7.0°C 57% 2.5 mph ENE4.0 kmh ENE 5.8 mph9.3 kmh 30.36 in1028.1 mb 0.00 in0.0 mm 0.00 in0.0 mm 0.00 in0.0 mm
11:15 AM 59.6°F15.3°C 44.6°F7.0°C 58% 2.9 mph E4.7 kmh E 6.5 mph10.5 kmh 30.35 in1027.8 mb 0.00 in0.0 mm 0.00 in0.0 mm 0.00 in0.0 mm
11:20 AM 59.3°F15.2°C 44.5°F6.9°C 58% 4.3 mph E6.9 kmh E 6.5 mph10.5 kmh 30.35 in1027.8 mb 0.00 in0.0 mm 0.00 in0.0 mm 0.00 in0.0 mm
11:25 AM 59.4°F15.2°C 44.6°F7.0°C 58% 4.1 mph E6.6 kmh E 5.1 mph8.2 kmh 30.35 in1027.8 mb 0.00 in0.0 mm 0.00 in0.0 mm 0.00 in0.0 mm
11:30 AM 59.8°F15.4°C 44.2°F6.8°C 56% 3.6 mph E5.8 kmh E 3.6 mph5.8 kmh 30.35 in1027.8 mb 0.00 in0.0 mm 0.00 in0.0 mm 0.00 in0.0 mm
11:35 AM 60.4°F15.8°C 44.4°F6.9°C 55% 3.3 mph E5.3 kmh E 3.6 mph5.8 kmh 30.35 in1027.8 mb 0.00 in0.0 mm 0.00 in0.0 mm 0.00 in0.0 mm
11:40 AM 61.0°F16.1°C 43.9°F6.6°C 53% 2.5 mph E4.0 kmh E 2.9 mph4.7 kmh 30.35 in1027.8 mb 0.00 in0.0 mm 0.00 in0.0 mm 0.00 in0.0 mm
11:45 AM 61.5°F16.4°C 44.5°F6.9°C 54% 2.4 mph E3.9 kmh E 5.1 mph8.2 kmh 30.35 in1027.8 mb 0.00 in0.0 mm 0.00 in0.0 mm 0.00 in0.0 mm
11:50 AM 62.0°F16.7°C 45.0°F7.2°C 54% 2.0 mph S3.2 kmh S 4.3 mph6.9 kmh 30.35 in1027.8 mb 0.00 in0.0 mm 0.00 in0.0 mm 0.00 in0.0 mm
11:55 AM 62.2°F16.8°C 45.3°F7.4°C 54% 2.2 mph SSE3.5 kmh SSE 4.0 mph6.4 kmh 30.35 in1027.8 mb 0.00 in0.0 mm 0.00 in0.0 mm 0.00 in0.0 mm
12:00 PM 62.4°F16.9°C 45.2°F7.3°C 53% 2.9 mph SE4.7 kmh SE 5.1 mph8.2 kmh 30.35 in1027.8 mb 0.00 in0.0 mm 0.00 in0.0 mm 0.00 in0.0 mm
12:05 PM 62.4°F16.9°C 45.0°F7.2°C 53% 3.1 mph SE5.0 kmh SE 5.4 mph8.7 kmh 30.35 in1027.8 mb 0.00 in0.0 mm 0.00 in0.0 mm 0.00 in0.0 mm
12:10 PM 62.2°F16.8°C 45.0°F7.2°C 53% 3.6 mph SE5.8 kmh SE 5.1 mph8.2 kmh 30.35 in1027.8 mb 0.00 in0.0 mm 0.00 in0.0 mm 0.00 in0.0 mm
12:15 PM 62.4°F16.9°C 45.0°F7.2°C 53% 3.6 mph SSE5.8 kmh SSE 5.1 mph8.2 kmh 30.34 in1027.4 mb 0.00 in0.0 mm 0.00 in0.0 mm 0.00 in0.0 mm
12:20 PM 62.4°F16.9°C 45.1°F7.3°C 53% 3.6 mph SSE5.8 kmh SSE 5.4 mph8.7 kmh 30.34 in1027.4 mb 0.00 in0.0 mm 0.00 in0.0 mm 0.00 in0.0 mm
12:25 PM 62.5°F16.9°C 45.1°F7.3°C 53% 3.5 mph SSE5.6 kmh SSE 5.4 mph8.7 kmh 30.34 in1027.4 mb 0.00 in0.0 mm 0.00 in0.0 mm 0.00 in0.0 mm
12:30 PM 62.7°F17.1°C 44.9°F7.2°C 52% 3.1 mph SSE5.0 kmh SSE 6.3 mph10.1 kmh 30.34 in1027.4 mb 0.00 in0.0 mm 0.00 in0.0 mm 0.00 in0.0 mm
12:35 PM 62.9°F17.2°C 45.0°F7.2°C 52% 3.3 mph SSE5.3 kmh SSE 6.3 mph10.1 kmh 30.34 in1027.4 mb 0.00 in0.0 mm 0.00 in0.0 mm 0.00 in0.0 mm
12:40 PM 62.9°F17.2°C 45.1°F7.3°C 52% 4.0 mph S6.4 kmh S 6.5 mph10.5 kmh 30.33 in1027.1 mb 0.00 in0.0 mm 0.00 in0.0 mm 0.00 in0.0 mm
12:45 PM 63.0°F17.2°C 45.6°F7.6°C 53% 4.0 mph S6.4 kmh S 6.9 mph11.1 kmh 30.33 in1027.1 mb 0.00 in0.0 mm 0.00 in0.0 mm 0.00 in0.0 mm
12:50 PM 63.2°F17.3°C 45.6°F7.6°C 53% 4.0 mph S6.4 kmh S 8.1 mph13.0 kmh 30.33 in1027.1 mb 0.00 in0.0 mm 0.00 in0.0 mm 0.00 in0.0 mm
12:55 PM 63.3°F17.4°C 45.3°F7.4°C 52% 4.4 mph S7.1 kmh S 7.4 mph11.9 kmh 30.32 in1026.8 mb 0.00 in0.0 mm 0.00 in0.0 mm 0.00 in0.0 mm
01:00 PM 63.3°F17.4°C 45.4°F7.4°C 52% 5.4 mph SSW8.7 kmh SSW 6.5 mph10.5 kmh 30.32 in1026.8 mb 0.00 in0.0 mm 0.00 in0.0 mm 0.00 in0.0 mm
01:05 PM 63.6°F17.6°C 45.4°F7.4°C 52% 4.9 mph SSW7.9 kmh SSW 5.8 mph9.3 kmh 30.32 in1026.8 mb 0.00 in0.0 mm 0.00 in0.0 mm 0.00 in0.0 mm
01:10 PM 63.7°F17.6°C 45.2°F7.3°C 51% 3.6 mph SSW5.8 kmh SSW 5.4 mph8.7 kmh 30.31 in1026.4 mb 0.00 in0.0 mm 0.00 in0.0 mm 0.00 in0.0 mm
01:15 PM 63.9°F17.7°C 45.4°F7.4°C 51% 3.4 mph S5.5 kmh S 4.3 mph6.9 kmh 30.31 in1026.4 mb 0.00 in0.0 mm 0.00 in0.0 mm 0.00 in0.0 mm
01:20 PM 64.2°F17.9°C 45.6°F7.6°C 51% 2.9 mph S4.7 kmh S 3.1 mph5.0 kmh 30.31 in1026.4 mb 0.00 in0.0 mm 0.00 in0.0 mm 0.00 in0.0 mm
01:25 PM 64.8°F18.2°C 45.7°F7.6°C 50% 2.7 mph S4.3 kmh S 3.6 mph5.8 kmh 30.30 in1026.1 mb 0.00 in0.0 mm 0.00 in0.0 mm 0.00 in0.0 mm
01:30 PM 65.4°F18.6°C 45.7°F7.6°C 49% 2.0 mph SW3.2 kmh SW 5.4 mph8.7 kmh 30.30 in1026.1 mb 0.00 in0.0 mm 0.00 in0.0 mm 0.00 in0.0 mm
01:35 PM 65.8°F18.8°C 46.1°F7.8°C 49% 2.1 mph SW3.4 kmh SW 4.0 mph6.4 kmh 30.30 in1026.1 mb 0.00 in0.0 mm 0.00 in0.0 mm 0.00 in0.0 mm
01:40 PM 66.1°F18.9°C 45.6°F7.6°C 48% 2.5 mph SW4.0 kmh SW 5.1 mph8.2 kmh 30.30 in1026.1 mb 0.00 in0.0 mm 0.00 in0.0 mm 0.00 in0.0 mm
01:45 PM 66.0°F18.9°C 45.2°F7.3°C 47% 2.6 mph SSW4.2 kmh SSW 5.1 mph8.2 kmh 30.30 in1026.1 mb 0.00 in0.0 mm 0.00 in0.0 mm 0.00 in0.0 mm
01:50 PM 66.0°F18.9°C 45.2°F7.3°C 47% 2.9 mph SE4.7 kmh SE 4.3 mph6.9 kmh 30.30 in1026.1 mb 0.00 in0.0 mm 0.00 in0.0 mm 0.00 in0.0 mm
01:55 PM 66.0°F18.9°C 45.2°F7.3°C 47% 2.8 mph SE4.5 kmh SE 3.6 mph5.8 kmh 30.29 in1025.7 mb 0.00 in0.0 mm 0.00 in0.0 mm 0.00 in0.0 mm
02:00 PM 66.2°F19.0°C 45.2°F7.3°C 47% 2.5 mph SE4.0 kmh SE 5.4 mph8.7 kmh 30.29 in1025.7 mb 0.00 in0.0 mm 0.00 in0.0 mm 0.00 in0.0 mm
02:05 PM 65.8°F18.8°C 45.2°F7.3°C 47% 2.6 mph SE4.2 kmh SE 5.4 mph8.7 kmh 30.29 in1025.7 mb 0.00 in0.0 mm 0.00 in0.0 mm 0.00 in0.0 mm
02:10 PM 65.6°F18.7°C 45.8°F7.7°C 49% 3.1 mph SE5.0 kmh SE 6.9 mph11.1 kmh 30.29 in1025.7 mb 0.00 in0.0 mm 0.00 in0.0 mm 0.00 in0.0 mm
02:15 PM 65.4°F18.6°C 46.3°F7.9°C 50% 3.4 mph ESE5.5 kmh ESE 6.3 mph10.1 kmh 30.28 in1025.4 mb 0.00 in0.0 mm 0.00 in0.0 mm 0.00 in0.0 mm
02:20 PM 65.1°F18.4°C 46.1°F7.8°C 50% 4.3 mph ESE6.9 kmh ESE 5.8 mph9.3 kmh 30.28 in1025.4 mb 0.00 in0.0 mm 0.00 in0.0 mm 0.00 in0.0 mm
02:25 PM 64.9°F18.3°C 46.0°F7.8°C 50% 4.3 mph ESE6.9 kmh ESE 6.9 mph11.1 kmh 30.28 in1025.4 mb 0.00 in0.0 mm 0.00 in0.0 mm 0.00 in0.0 mm
02:30 PM 65.0°F18.3°C 46.4°F8.0°C 51% 4.3 mph E6.9 kmh E 5.8 mph9.3 kmh 30.28 in1025.4 mb 0.00 in0.0 mm 0.00 in0.0 mm 0.00 in0.0 mm
02:35 PM 65.4°F18.6°C 46.5°F8.1°C 50% 4.2 mph E6.8 kmh E 6.5 mph10.5 kmh 30.28 in1025.4 mb 0.00 in0.0 mm 0.00 in0.0 mm 0.00 in0.0 mm
02:40 PM 65.4°F18.6°C 46.0°F7.8°C 49% 4.0 mph E6.4 kmh E 6.3 mph10.1 kmh 30.28 in1025.4 mb 0.00 in0.0 mm 0.00 in0.0 mm 0.00 in0.0 mm
02:45 PM 65.5°F18.6°C 45.8°F7.7°C 49% 4.0 mph E6.4 kmh E 5.4 mph8.7 kmh 30.28 in1025.4 mb 0.00 in0.0 mm 0.00 in0.0 mm 0.00 in0.0 mm
02:50 PM 65.8°F18.8°C 45.2°F7.3°C 47% 4.0 mph E6.4 kmh E 6.3 mph10.1 kmh 30.28 in1025.4 mb 0.00 in0.0 mm 0.00 in0.0 mm 0.00 in0.0 mm
02:55 PM 65.8°F18.8°C 45.6°F7.6°C 48% 3.9 mph E6.3 kmh E 5.8 mph9.3 kmh 30.28 in1025.4 mb 0.00 in0.0 mm 0.00 in0.0 mm 0.00 in0.0 mm
03:00 PM 65.9°F18.8°C 45.6°F7.6°C 48% 3.6 mph E5.8 kmh E 5.8 mph9.3 kmh 30.28 in1025.4 mb 0.00 in0.0 mm 0.00 in0.0 mm 0.00 in0.0 mm
03:05 PM 66.3°F19.1°C 45.6°F7.6°C 47% 3.6 mph ESE5.8 kmh ESE 4.7 mph7.6 kmh 30.28 in1025.4 mb 0.00 in0.0 mm 0.00 in0.0 mm 0.00 in0.0 mm
03:10 PM 66.7°F19.3°C 45.9°F7.7°C 47% 3.6 mph SE5.8 kmh SE 5.4 mph8.7 kmh 30.28 in1025.4 mb 0.00 in0.0 mm 0.00 in0.0 mm 0.00 in0.0 mm
03:15 PM 66.8°F19.3°C 45.4°F7.4°C 46% 3.7 mph SE6.0 kmh SE 5.4 mph8.7 kmh 30.28 in1025.4 mb 0.00 in0.0 mm 0.00 in0.0 mm 0.00 in0.0 mm
03:20 PM 66.6°F19.2°C 45.3°F7.4°C 46% 4.0 mph SE6.4 kmh SE 6.9 mph11.1 kmh 30.28 in1025.4 mb 0.00 in0.0 mm 0.00 in0.0 mm 0.00 in0.0 mm
03:25 PM 66.1°F18.9°C 45.3°F7.4°C 47% 4.2 mph ESE6.8 kmh ESE 8.5 mph13.7 kmh 30.28 in1025.4 mb 0.00 in0.0 mm 0.00 in0.0 mm 0.00 in0.0 mm
03:30 PM 65.9°F18.8°C 45.0°F7.2°C 47% 4.7 mph E7.6 kmh E 9.2 mph14.8 kmh 30.28 in1025.4 mb 0.00 in0.0 mm 0.00 in0.0 mm 0.00 in0.0 mm
03:35 PM 65.7°F18.7°C 44.6°F7.0°C 46% 5.1 mph E8.2 kmh E 10.1 mph16.3 kmh 30.28 in1025.4 mb 0.00 in0.0 mm 0.00 in0.0 mm 0.00 in0.0 mm
03:40 PM 65.6°F18.7°C 45.5°F7.5°C 48% 6.3 mph E10.1 kmh E 10.1 mph16.3 kmh 30.28 in1025.4 mb 0.00 in0.0 mm 0.00 in0.0 mm 0.00 in0.0 mm
03:45 PM 65.3°F18.5°C 47.2°F8.4°C 52% 6.7 mph ENE10.8 kmh ENE 13.6 mph21.9 kmh 30.28 in1025.4 mb 0.00 in0.0 mm 0.00 in0.0 mm 0.00 in0.0 mm
03:50 PM 64.9°F18.3°C 47.4°F8.6°C 53% 8.1 mph ENE13.0 kmh ENE 12.3 mph19.8 kmh 30.28 in1025.4 mb 0.00 in0.0 mm 0.00 in0.0 mm 0.00 in0.0 mm
03:55 PM 64.5°F18.1°C 47.4°F8.6°C 54% 8.2 mph ENE13.2 kmh ENE 12.3 mph19.8 kmh 30.28 in1025.4 mb 0.00 in0.0 mm 0.00 in0.0 mm 0.00 in0.0 mm
04:00 PM 64.2°F17.9°C 47.2°F8.4°C 54% 8.5 mph ENE13.7 kmh ENE 13.0 mph20.9 kmh 30.28 in1025.4 mb 0.00 in0.0 mm 0.00 in0.0 mm 0.00 in0.0 mm
04:05 PM 63.9°F17.7°C 47.1°F8.4°C 54% 8.4 mph ENE13.5 kmh ENE 11.4 mph18.3 kmh 30.28 in1025.4 mb 0.00 in0.0 mm 0.00 in0.0 mm 0.00 in0.0 mm
04:10 PM 63.8°F17.7°C 47.4°F8.6°C 55% 8.1 mph ENE13.0 kmh ENE 10.7 mph17.2 kmh 30.28 in1025.4 mb 0.00 in0.0 mm 0.00 in0.0 mm 0.00 in0.0 mm
04:15 PM 63.7°F17.6°C 47.7°F8.7°C 56% 7.9 mph ENE12.7 kmh ENE 10.3 mph16.6 kmh 30.29 in1025.7 mb 0.00 in0.0 mm 0.00 in0.0 mm 0.00 in0.0 mm
04:20 PM 63.5°F17.5°C 47.9°F8.8°C 57% 7.6 mph ENE12.2 kmh ENE 10.1 mph16.3 kmh 30.29 in1025.7 mb 0.00 in0.0 mm 0.00 in0.0 mm 0.00 in0.0 mm
04:25 PM 63.3°F17.4°C 48.3°F9.1°C 58% 7.4 mph ENE11.9 kmh ENE 11.2 mph18.0 kmh 30.29 in1025.7 mb 0.00 in0.0 mm 0.00 in0.0 mm 0.00 in0.0 mm
04:30 PM 63.2°F17.3°C 48.1°F8.9°C 58% 6.9 mph ENE11.1 kmh ENE 9.6 mph15.4 kmh 30.29 in1025.7 mb 0.00 in0.0 mm 0.00 in0.0 mm 0.00 in0.0 mm
04:35 PM 63.0°F17.2°C 48.3°F9.1°C 59% 7.0 mph ENE11.3 kmh ENE 10.1 mph16.3 kmh 30.29 in1025.7 mb 0.00 in0.0 mm 0.00 in0.0 mm 0.00 in0.0 mm
04:40 PM 62.8°F17.1°C 48.6°F9.2°C 60% 7.4 mph ENE11.9 kmh ENE 8.5 mph13.7 kmh 30.29 in1025.7 mb 0.00 in0.0 mm 0.00 in0.0 mm 0.00 in0.0 mm
04:45 PM 62.7°F17.1°C 47.8°F8.8°C 58% 7.1 mph ENE11.4 kmh ENE 9.2 mph14.8 kmh 30.29 in1025.7 mb 0.00 in0.0 mm 0.00 in0.0 mm 0.00 in0.0 mm
04:50 PM 62.5°F16.9°C 46.6°F8.1°C 56% 6.3 mph ENE10.1 kmh ENE 8.7 mph14.0 kmh 30.29 in1025.7 mb 0.00 in0.0 mm 0.00 in0.0 mm 0.00 in0.0 mm
04:55 PM 62.4°F16.9°C 46.8°F8.2°C 57% 6.0 mph ENE9.7 kmh ENE 7.6 mph12.2 kmh 30.29 in1025.7 mb 0.00 in0.0 mm 0.00 in0.0 mm 0.00 in0.0 mm
05:00 PM 62.4°F16.9°C 47.0°F8.3°C 57% 5.1 mph ENE8.2 kmh ENE 6.5 mph10.5 kmh 30.30 in1026.1 mb 0.00 in0.0 mm 0.00 in0.0 mm 0.00 in0.0 mm
05:05 PM 62.4°F16.9°C 47.6°F8.7°C 58% 4.9 mph NE7.9 kmh NE 9.6 mph15.4 kmh 30.30 in1026.1 mb 0.00 in0.0 mm 0.00 in0.0 mm 0.00 in0.0 mm
05:10 PM 62.3°F16.8°C 48.5°F9.2°C 61% 4.3 mph NE6.9 kmh NE 11.9 mph19.2 kmh 30.30 in1026.1 mb 0.00 in0.0 mm 0.00 in0.0 mm 0.00 in0.0 mm
05:15 PM 62.1°F16.7°C 49.1°F9.5°C 62% 4.7 mph NE7.6 kmh NE 8.5 mph13.7 kmh 30.30 in1026.1 mb 0.00 in0.0 mm 0.00 in0.0 mm 0.00 in0.0 mm
05:20 PM 61.7°F16.5°C 49.6°F9.8°C 64% 6.3 mph NE10.1 kmh NE 10.1 mph16.3 kmh 30.30 in1026.1 mb 0.00 in0.0 mm 0.00 in0.0 mm 0.00 in0.0 mm
05:25 PM 61.4°F16.3°C 49.5°F9.7°C 65% 6.3 mph NE10.1 kmh NE 10.1 mph16.3 kmh 30.30 in1026.1 mb 0.00 in0.0 mm 0.00 in0.0 mm 0.00 in0.0 mm
05:30 PM 61.1°F16.2°C 49.4°F9.7°C 65% 6.3 mph NE10.1 kmh NE 10.3 mph16.6 kmh 30.30 in1026.1 mb 0.00 in0.0 mm 0.00 in0.0 mm 0.00 in0.0 mm
05:35 PM 60.7°F15.9°C 49.3°F9.6°C 66% 6.2 mph NE10.0 kmh NE 7.6 mph12.2 kmh 30.30 in1026.1 mb 0.00 in0.0 mm 0.00 in0.0 mm 0.00 in0.0 mm
05:40 PM 60.3°F15.7°C 49.1°F9.5°C 66% 5.8 mph NE9.3 kmh NE 5.8 mph9.3 kmh 30.30 in1026.1 mb 0.00 in0.0 mm 0.00 in0.0 mm 0.00 in0.0 mm
05:45 PM 59.9°F15.5°C 49.2°F9.6°C 68% 5.4 mph NE8.7 kmh NE 6.3 mph10.1 kmh 30.30 in1026.1 mb 0.00 in0.0 mm 0.00 in0.0 mm 0.00 in0.0 mm
05:50 PM 59.5°F15.3°C 48.9°F9.4°C 68% 4.0 mph NE6.4 kmh NE 5.8 mph9.3 kmh 30.30 in1026.1 mb 0.00 in0.0 mm 0.00 in0.0 mm 0.00 in0.0 mm
05:55 PM 59.3°F15.2°C 48.7°F9.3°C 68% 4.0 mph NE6.4 kmh NE 6.5 mph10.5 kmh 30.31 in1026.4 mb 0.00 in0.0 mm 0.00 in0.0 mm 0.00 in0.0 mm
06:00 PM 59.0°F15.0°C 48.8°F9.3°C 69% 4.0 mph NE6.4 kmh NE 7.6 mph12.2 kmh 30.31 in1026.4 mb 0.00 in0.0 mm 0.00 in0.0 mm 0.00 in0.0 mm
06:05 PM 58.8°F14.9°C 49.1°F9.5°C 70% 4.3 mph NE6.9 kmh NE 7.6 mph12.2 kmh 30.31 in1026.4 mb 0.00 in0.0 mm 0.00 in0.0 mm 0.00 in0.0 mm
06:10 PM 58.6°F14.8°C 49.3°F9.6°C 71% 5.1 mph NNE8.2 kmh NNE 6.9 mph11.1 kmh 30.31 in1026.4 mb 0.00 in0.0 mm 0.00 in0.0 mm 0.00 in0.0 mm
06:15 PM 58.4°F14.7°C 49.5°F9.7°C 72% 5.0 mph NNE8.0 kmh NNE 8.1 mph13.0 kmh 30.31 in1026.4 mb 0.00 in0.0 mm 0.00 in0.0 mm 0.00 in0.0 mm
06:20 PM 58.2°F14.6°C 49.7°F9.8°C 73% 4.7 mph NE7.6 kmh NE 7.4 mph11.9 kmh 30.31 in1026.4 mb 0.00 in0.0 mm 0.00 in0.0 mm 0.00 in0.0 mm
06:25 PM 58.0°F14.4°C 49.7°F9.8°C 74% 4.7 mph NE7.6 kmh NE 7.4 mph11.9 kmh 30.31 in1026.4 mb 0.00 in0.0 mm 0.00 in0.0 mm 0.00 in0.0 mm
06:30 PM 57.8°F14.3°C 49.8°F9.9°C 75% 4.7 mph NNE7.6 kmh NNE 7.6 mph12.2 kmh 30.31 in1026.4 mb 0.00 in0.0 mm 0.00 in0.0 mm 0.00 in0.0 mm
06:35 PM 57.7°F14.3°C 49.8°F9.9°C 75% 4.4 mph NNE7.1 kmh NNE 5.4 mph8.7 kmh 30.31 in1026.4 mb 0.00 in0.0 mm 0.00 in0.0 mm 0.00 in0.0 mm
06:40 PM 57.5°F14.2°C 49.7°F9.8°C 75% 3.6 mph NNE5.8 kmh NNE 6.5 mph10.5 kmh 30.31 in1026.4 mb 0.00 in0.0 mm 0.00 in0.0 mm 0.00 in0.0 mm
06:45 PM 57.4°F14.1°C 49.9°F9.9°C 76% 3.5 mph NNE5.6 kmh NNE 5.8 mph9.3 kmh 30.31 in1026.4 mb 0.00 in0.0 mm 0.00 in0.0 mm 0.00 in0.0 mm
06:50 PM 57.3°F14.1°C 49.8°F9.9°C 76% 3.1 mph NNE5.0 kmh NNE 7.6 mph12.2 kmh 30.31 in1026.4 mb 0.00 in0.0 mm 0.00 in0.0 mm 0.00 in0.0 mm
06:55 PM 57.1°F13.9°C 49.9°F9.9°C 77% 3.3 mph N5.3 kmh N 6.5 mph10.5 kmh 30.31 in1026.4 mb 0.00 in0.0 mm 0.00 in0.0 mm 0.00 in0.0 mm
07:00 PM 57.0°F13.9°C 49.8°F9.9°C 77% 4.0 mph N6.4 kmh N 7.6 mph12.2 kmh 30.31 in1026.4 mb 0.00 in0.0 mm 0.00 in0.0 mm 0.00 in0.0 mm
07:05 PM 56.8°F13.8°C 49.9°F9.9°C 78% 4.3 mph N6.9 kmh N 8.1 mph13.0 kmh 30.31 in1026.4 mb 0.00 in0.0 mm 0.00 in0.0 mm 0.00 in0.0 mm
07:10 PM 56.7°F13.7°C 49.9°F9.9°C 78% 5.1 mph N8.2 kmh N 9.6 mph15.4 kmh 30.31 in1026.4 mb 0.00 in0.0 mm 0.00 in0.0 mm 0.00 in0.0 mm
07:15 PM 56.7°F13.7°C 50.2°F10.1°C 79% 5.0 mph N8.0 kmh N 8.5 mph13.7 kmh 30.31 in1026.4 mb 0.00 in0.0 mm 0.00 in0.0 mm 0.00 in0.0 mm
07:20 PM 56.5°F13.6°C 50.2°F10.1°C 79% 4.7 mph N7.6 kmh N 8.1 mph13.0 kmh 30.31 in1026.4 mb 0.00 in0.0 mm 0.00 in0.0 mm 0.00 in0.0 mm
07:25 PM 56.5°F13.6°C 50.4°F10.2°C 80% 4.6 mph N7.4 kmh N 7.6 mph12.2 kmh 30.31 in1026.4 mb 0.00 in0.0 mm 0.00 in0.0 mm 0.00 in0.0 mm
07:30 PM 56.3°F13.5°C 50.3°F10.2°C 80% 4.3 mph N6.9 kmh N 7.6 mph12.2 kmh 30.31 in1026.4 mb 0.00 in0.0 mm 0.00 in0.0 mm 0.00 in0.0 mm
07:35 PM 56.2°F13.4°C 50.4°F10.2°C 81% 4.5 mph N7.2 kmh N 8.5 mph13.7 kmh 30.31 in1026.4 mb 0.00 in0.0 mm 0.00 in0.0 mm 0.00 in0.0 mm
07:40 PM 56.1°F13.4°C 50.4°F10.2°C 81% 5.1 mph N8.2 kmh N 8.7 mph14.0 kmh 30.32 in1026.8 mb 0.00 in0.0 mm 0.00 in0.0 mm 0.00 in0.0 mm
07:45 PM 56.1°F13.4°C 50.4°F10.2°C 81% 5.4 mph N8.7 kmh N 8.1 mph13.0 kmh 30.32 in1026.8 mb 0.00 in0.0 mm 0.00 in0.0 mm 0.00 in0.0 mm
07:50 PM 56.1°F13.4°C 50.7°F10.4°C 82% 6.3 mph N10.1 kmh N 8.1 mph13.0 kmh 30.32 in1026.8 mb 0.00 in0.0 mm 0.00 in0.0 mm 0.00 in0.0 mm
07:55 PM 56.0°F13.3°C 50.6°F10.3°C 82% 6.0 mph N9.7 kmh N 8.1 mph13.0 kmh 30.32 in1026.8 mb 0.00 in0.0 mm 0.00 in0.0 mm 0.00 in0.0 mm
08:00 PM 55.9°F13.3°C 50.5°F10.3°C 82% 5.1 mph N8.2 kmh N 8.5 mph13.7 kmh 30.32 in1026.8 mb 0.00 in0.0 mm 0.00 in0.0 mm 0.00 in0.0 mm
08:05 PM 55.9°F13.3°C 50.5°F10.3°C 82% 5.2 mph N8.4 kmh N 7.6 mph12.2 kmh 30.32 in1026.8 mb 0.00 in0.0 mm 0.00 in0.0 mm 0.00 in0.0 mm
08:10 PM 55.8°F13.2°C 50.4°F10.2°C 82% 5.4 mph N8.7 kmh N 7.6 mph12.2 kmh 30.32 in1026.8 mb 0.00 in0.0 mm 0.00 in0.0 mm 0.00 in0.0 mm
08:15 PM 55.8°F13.2°C 50.3°F10.2°C 82% 5.3 mph N8.5 kmh N 7.4 mph11.9 kmh 30.32 in1026.8 mb 0.00 in0.0 mm 0.00 in0.0 mm 0.00 in0.0 mm
08:20 PM 55.8°F13.2°C 50.3°F10.2°C 82% 5.1 mph NNW8.2 kmh NNW 6.9 mph11.1 kmh 30.32 in1026.8 mb 0.00 in0.0 mm 0.00 in0.0 mm 0.00 in0.0 mm
08:25 PM 55.8°F13.2°C 50.3°F10.2°C 82% 5.1 mph NNW8.2 kmh NNW 7.4 mph11.9 kmh 30.32 in1026.8 mb 0.00 in0.0 mm 0.00 in0.0 mm 0.00 in0.0 mm
08:30 PM 55.8°F13.2°C 50.6°F10.3°C 83% 5.1 mph NNW8.2 kmh NNW 7.6 mph12.2 kmh 30.32 in1026.8 mb 0.00 in0.0 mm 0.00 in0.0 mm 0.00 in0.0 mm
08:35 PM 55.7°F13.2°C 50.7°F10.4°C 83% 5.1 mph NNW8.2 kmh NNW 6.9 mph11.1 kmh 30.32 in1026.8 mb 0.00 in0.0 mm 0.00 in0.0 mm 0.00 in0.0 mm
08:40 PM 55.7°F13.2°C 50.6°F10.3°C 83% 5.1 mph NW8.2 kmh NW 6.5 mph10.5 kmh 30.32 in1026.8 mb 0.00 in0.0 mm 0.00 in0.0 mm 0.00 in0.0 mm
08:45 PM 55.6°F13.1°C 50.5°F10.3°C 83% 5.0 mph NW8.0 kmh NW 6.5 mph10.5 kmh 30.32 in1026.8 mb 0.00 in0.0 mm 0.00 in0.0 mm 0.00 in0.0 mm
08:50 PM 55.6°F13.1°C 50.5°F10.3°C 83% 4.7 mph NW7.6 kmh NW 7.4 mph11.9 kmh 30.32 in1026.8 mb 0.00 in0.0 mm 0.00 in0.0 mm 0.00 in0.0 mm
08:55 PM 55.6°F13.1°C 50.5°F10.3°C 83% 4.9 mph NW7.9 kmh NW 7.6 mph12.2 kmh 30.32 in1026.8 mb 0.00 in0.0 mm 0.00 in0.0 mm 0.00 in0.0 mm
09:00 PM 55.6°F13.1°C 50.6°F10.3°C 83% 5.4 mph NW8.7 kmh NW 7.6 mph12.2 kmh 30.32 in1026.8 mb 0.00 in0.0 mm 0.00 in0.0 mm 0.00 in0.0 mm
09:05 PM 55.6°F13.1°C 50.8°F10.4°C 84% 5.6 mph NW9.0 kmh NW 8.1 mph13.0 kmh 30.32 in1026.8 mb 0.00 in0.0 mm 0.00 in0.0 mm 0.00 in0.0 mm
09:10 PM 55.6°F13.1°C 50.8°F10.4°C 84% 6.3 mph NW10.1 kmh NW 8.7 mph14.0 kmh 30.32 in1026.8 mb 0.00 in0.0 mm 0.00 in0.0 mm 0.00 in0.0 mm
09:15 PM 55.6°F13.1°C 50.8°F10.4°C 84% 6.3 mph NW10.1 kmh NW 7.6 mph12.2 kmh 30.32 in1026.8 mb 0.00 in0.0 mm 0.00 in0.0 mm 0.00 in0.0 mm
09:20 PM 55.6°F13.1°C 50.8°F10.4°C 84% 6.5 mph NNW10.5 kmh NNW 7.6 mph12.2 kmh 30.32 in1026.8 mb 0.00 in0.0 mm 0.00 in0.0 mm 0.00 in0.0 mm
09:25 PM 55.6°F13.1°C 51.1°F10.6°C 85% 6.3 mph NNW10.1 kmh NNW 8.5 mph13.7 kmh 30.33 in1027.1 mb 0.00 in0.0 mm 0.00 in0.0 mm 0.00 in0.0 mm
09:30 PM 55.6°F13.1°C 51.1°F10.6°C 85% 5.8 mph NNW9.3 kmh NNW 8.7 mph14.0 kmh 30.33 in1027.1 mb 0.00 in0.0 mm 0.00 in0.0 mm 0.00 in0.0 mm
09:35 PM 55.6°F13.1°C 51.1°F10.6°C 85% 6.0 mph NNW9.7 kmh NNW 7.6 mph12.2 kmh 30.33 in1027.1 mb 0.00 in0.0 mm 0.00 in0.0 mm 0.00 in0.0 mm
09:40 PM 55.5°F13.1°C 51.1°F10.6°C 85% 6.5 mph NNW10.5 kmh NNW 8.1 mph13.0 kmh 30.33 in1027.1 mb 0.00 in0.0 mm 0.00 in0.0 mm 0.00 in0.0 mm
09:45 PM 55.4°F13.0°C 51.0°F10.6°C 85% 6.4 mph NNW10.3 kmh NNW 7.6 mph12.2 kmh 30.34 in1027.4 mb 0.00 in0.0 mm 0.00 in0.0 mm 0.00 in0.0 mm
09:50 PM 55.4°F13.0°C 51.0°F10.6°C 85% 6.3 mph NNW10.1 kmh NNW 7.6 mph12.2 kmh 30.34 in1027.4 mb 0.00 in0.0 mm 0.00 in0.0 mm 0.00 in0.0 mm
09:55 PM 55.3°F12.9°C 50.9°F10.5°C 85% 6.3 mph NNW10.1 kmh NNW 7.4 mph11.9 kmh 30.33 in1027.1 mb 0.00 in0.0 mm 0.00 in0.0 mm 0.00 in0.0 mm
10:00 PM 55.2°F12.9°C 50.7°F10.4°C 85% 6.3 mph NNW10.1 kmh NNW 8.1 mph13.0 kmh 30.33 in1027.1 mb 0.00 in0.0 mm 0.00 in0.0 mm 0.00 in0.0 mm
10:05 PM 55.0°F12.8°C 50.5°F10.3°C 85% 6.2 mph NNW10.0 kmh NNW 7.4 mph11.9 kmh 30.33 in1027.1 mb 0.00 in0.0 mm 0.00 in0.0 mm 0.00 in0.0 mm
10:10 PM 54.8°F12.7°C 50.1°F10.1°C 84% 5.8 mph NNW9.3 kmh NNW 7.6 mph12.2 kmh 30.34 in1027.4 mb 0.00 in0.0 mm 0.00 in0.0 mm 0.00 in0.0 mm
10:15 PM 54.5°F12.5°C 49.7°F9.8°C 84% 5.7 mph NNW9.2 kmh NNW 7.6 mph12.2 kmh 30.34 in1027.4 mb 0.00 in0.0 mm 0.00 in0.0 mm 0.00 in0.0 mm
10:20 PM 54.2°F12.3°C 49.1°F9.5°C 83% 5.4 mph NW8.7 kmh NW 8.7 mph14.0 kmh 30.34 in1027.4 mb 0.00 in0.0 mm 0.00 in0.0 mm 0.00 in0.0 mm
10:25 PM 53.9°F12.2°C 48.8°F9.3°C 83% 5.6 mph NW9.0 kmh NW 8.1 mph13.0 kmh 30.34 in1027.4 mb 0.00 in0.0 mm 0.00 in0.0 mm 0.00 in0.0 mm
10:30 PM 53.6°F12.0°C 48.6°F9.2°C 83% 6.5 mph NW10.5 kmh NW 6.5 mph10.5 kmh 30.34 in1027.4 mb 0.00 in0.0 mm 0.00 in0.0 mm 0.00 in0.0 mm
10:35 PM 53.6°F12.0°C 48.9°F9.4°C 84% 6.1 mph NW9.8 kmh NW 6.5 mph10.5 kmh 30.34 in1027.4 mb 0.00 in0.0 mm 0.00 in0.0 mm 0.00 in0.0 mm
10:40 PM 53.6°F12.0°C 48.9°F9.4°C 84% 4.7 mph NW7.6 kmh NW 5.8 mph9.3 kmh 30.34 in1027.4 mb 0.00 in0.0 mm 0.00 in0.0 mm 0.00 in0.0 mm
10:45 PM 53.8°F12.1°C 49.1°F9.5°C 84% 4.6 mph NW7.4 kmh NW 6.5 mph10.5 kmh 30.34 in1027.4 mb 0.00 in0.0 mm 0.00 in0.0 mm 0.00 in0.0 mm
10:50 PM 53.8°F12.1°C 49.0°F9.4°C 84% 4.3 mph NW6.9 kmh NW 6.9 mph11.1 kmh 30.34 in1027.4 mb 0.00 in0.0 mm 0.00 in0.0 mm 0.00 in0.0 mm
10:55 PM 53.6°F12.0°C 48.5°F9.2°C 83% 4.5 mph NW7.2 kmh NW 6.9 mph11.1 kmh 30.34 in1027.4 mb 0.00 in0.0 mm 0.00 in0.0 mm 0.00 in0.0 mm
11:00 PM 53.4°F11.9°C 48.0°F8.9°C 82% 5.4 mph NW8.7 kmh NW 6.5 mph10.5 kmh 30.34 in1027.4 mb 0.00 in0.0 mm 0.00 in0.0 mm 0.00 in0.0 mm
11:05 PM 53.2°F11.8°C 47.9°F8.8°C 82% 5.3 mph NW8.5 kmh NW 6.9 mph11.1 kmh 30.34 in1027.4 mb 0.00 in0.0 mm 0.00 in0.0 mm 0.00 in0.0 mm
11:10 PM 53.1°F11.7°C 47.5°F8.6°C 81% 5.1 mph NW8.2 kmh NW 7.6 mph12.2 kmh 30.34 in1027.4 mb 0.00 in0.0 mm 0.00 in0.0 mm 0.00 in0.0 mm
11:15 PM 53.1°F11.7°C 47.4°F8.6°C 81% 5.4 mph NW8.7 kmh NW 8.1 mph13.0 kmh 30.34 in1027.4 mb 0.00 in0.0 mm 0.00 in0.0 mm 0.00 in0.0 mm
11:20 PM 53.1°F11.7°C 47.4°F8.6°C 81% 6.3 mph NW10.1 kmh NW 7.6 mph12.2 kmh 30.34 in1027.4 mb 0.00 in0.0 mm 0.00 in0.0 mm 0.00 in0.0 mm
11:25 PM 53.1°F11.7°C 47.4°F8.6°C 81% 6.3 mph NW10.1 kmh NW 7.6 mph12.2 kmh 30.34 in1027.4 mb 0.00 in0.0 mm 0.00 in0.0 mm 0.00 in0.0 mm
11:30 PM 53.2°F11.8°C 47.5°F8.6°C 81% 6.3 mph NW10.1 kmh NW 7.4 mph11.9 kmh 30.34 in1027.4 mb 0.00 in0.0 mm 0.00 in0.0 mm 0.00 in0.0 mm
11:35 PM 53.2°F11.8°C 47.6°F8.7°C 81% 6.2 mph NW10.0 kmh NW 7.4 mph11.9 kmh 30.34 in1027.4 mb 0.00 in0.0 mm 0.00 in0.0 mm 0.00 in0.0 mm
11:40 PM 53.3°F11.8°C 47.6°F8.7°C 81% 5.8 mph NW9.3 kmh NW 7.6 mph12.2 kmh 30.34 in1027.4 mb 0.00 in0.0 mm 0.00 in0.0 mm 0.00 in0.0 mm
11:45 PM 53.4°F11.9°C 47.9°F8.8°C 81% 5.8 mph NW9.3 kmh NW 8.5 mph13.7 kmh 30.34 in1027.4 mb 0.00 in0.0 mm 0.00 in0.0 mm 0.00 in0.0 mm
11:50 PM 53.5°F11.9°C 47.7°F8.7°C 81% 5.8 mph NW9.3 kmh NW 7.4 mph11.9 kmh 30.34 in1027.4 mb 0.00 in0.0 mm 0.00 in0.0 mm 0.00 in0.0 mm
11:55 PM 53.4°F11.9°C 47.4°F8.6°C 80% 5.7 mph NW9.2 kmh NW 6.5 mph10.5 kmh 30.34 in1027.4 mb 0.00 in0.0 mm 0.00 in0.0 mm 0.00 in0.0 mm